Time;durP1;ratioP1;P1;durP2;ratioP2;P2;SDS_P1;SDS_P2;PMS_P1;PMS_P2;Temp;Humidity;BMP_temperature;BMP_pressure;BME280_temperature;BME280_humidity;BME280_pressure;Samples;Min_cycle;Max_cycle;Signal;HPM_P1;HPM_P2
2021/08/15 00:02:08;;;;;;;9.3;6.5;;;;;;;;;;;;;
2021/08/15 00:04:34;;;;;;;8.7;5.9;;;;;;;;;;;;;
2021/08/15 00:07:00;;;;;;;11.2;6.8;;;;;;;;;;;;;
2021/08/15 00:09:25;;;;;;;10.2;6.7;;;;;;;;;;;;;
2021/08/15 00:11:51;;;;;;;13;7.3;;;;;;;;;;;;;
2021/08/15 00:14:16;;;;;;;13;6.8;;;;;;;;;;;;;
2021/08/15 00:16:43;;;;;;;9.6;6.7;;;;;;;;;;;;;
2021/08/15 00:19:08;;;;;;;9;6.1;;;;;;;;;;;;;
2021/08/15 00:21:33;;;;;;;11;6.3;;;;;;;;;;;;;
2021/08/15 00:23:58;;;;;;;10.7;6.4;;;;;;;;;;;;;
2021/08/15 00:26:23;;;;;;;9.6;6.2;;;;;;;;;;;;;
2021/08/15 00:28:48;;;;;;;11.2;6.4;;;;;;;;;;;;;
2021/08/15 00:31:14;;;;;;;8.6;6.2;;;;;;;;;;;;;
2021/08/15 00:33:39;;;;;;;10.3;7.2;;;;;;;;;;;;;
2021/08/15 00:36:04;;;;;;;10.1;6.9;;;;;;;;;;;;;
2021/08/15 00:38:30;;;;;;;11.5;7.2;;;;;;;;;;;;;
2021/08/15 00:40:55;;;;;;;10.6;6.2;;;;;;;;;;;;;
2021/08/15 00:43:21;;;;;;;9.1;5.9;;;;;;;;;;;;;
2021/08/15 00:45:46;;;;;;;9.5;6.4;;;;;;;;;;;;;
2021/08/15 00:48:12;;;;;;;10.9;6.5;;;;;;;;;;;;;
2021/08/15 00:50:37;;;;;;;9.5;6.5;;;;;;;;;;;;;
2021/08/15 00:53:02;;;;;;;13.1;6.8;;;;;;;;;;;;;
2021/08/15 00:55:27;;;;;;;9.6;6.6;;;;;;;;;;;;;
2021/08/15 00:57:52;;;;;;;10.5;6.4;;;;;;;;;;;;;
2021/08/15 01:00:18;;;;;;;9.9;6.6;;;;;;;;;;;;;
2021/08/15 01:02:43;;;;;;;10.3;6.2;;;;;;;;;;;;;
2021/08/15 01:05:08;;;;;;;10.5;6.1;;;;;;;;;;;;;
2021/08/15 01:07:33;;;;;;;9.2;6.6;;;;;;;;;;;;;
2021/08/15 01:09:58;;;;;;;11.5;6.3;;;;;;;;;;;;;
2021/08/15 01:12:26;;;;;;;11.2;6.9;;;;;;;;;;;;;
2021/08/15 01:14:48;;;;;;;11;6.7;;;;;;;;;;;;;
2021/08/15 01:17:13;;;;;;;10.2;6.3;;;;;;;;;;;;;
2021/08/15 01:19:38;;;;;;;10.8;6;;;;;;;;;;;;;
2021/08/15 01:22:03;;;;;;;10.5;6.5;;;;;;;;;;;;;
2021/08/15 01:24:28;;;;;;;9.9;6.4;;;;;;;;;;;;;
2021/08/15 01:26:56;;;;;;;8.4;5.9;;;;;;;;;;;;;
2021/08/15 01:29:19;;;;;;;11.4;6.5;;;;;;;;;;;;;
2021/08/15 01:31:46;;;;;;;10.6;6.5;;;;;;;;;;;;;
2021/08/15 01:34:11;;;;;;;9.4;6.4;;;;;;;;;;;;;
2021/08/15 01:36:37;;;;;;;10.7;6.2;;;;;;;;;;;;;
2021/08/15 01:39:02;;;;;;;11.6;6.3;;;;;;;;;;;;;
2021/08/15 01:41:27;;;;;;;10;5.7;;;;;;;;;;;;;
2021/08/15 01:43:53;;;;;;;8.7;6;;;;;;;;;;;;;
2021/08/15 01:46:18;;;;;;;10.7;6.1;;;;;;;;;;;;;
2021/08/15 01:48:44;;;;;;;14.1;6.7;;;;;;;;;;;;;
2021/08/15 01:51:10;;;;;;;11.5;6.7;;;;;;;;;;;;;
2021/08/15 01:53:35;;;;;;;10.7;7.1;;;;;;;;;;;;;
2021/08/15 01:56:01;;;;;;;13.2;6.9;;;;;;;;;;;;;
2021/08/15 01:58:26;;;;;;;10.6;6.8;;;;;;;;;;;;;
2021/08/15 02:00:51;;;;;;;11.5;6.9;;;;;;;;;;;;;
2021/08/15 02:03:22;;;;;;;12.3;7.2;;;;;;;;;;;;;
2021/08/15 02:05:48;;;;;;;9.6;6.7;;;;;;;;;;;;;
2021/08/15 02:08:13;;;;;;;12.5;7.1;;;;;;;;;;;;;
2021/08/15 02:10:38;;;;;;;9.5;6.5;;;;;;;;;;;;;
2021/08/15 02:13:03;;;;;;;9.1;6.5;;;;;;;;;;;;;
2021/08/15 02:15:33;;;;;;;10.6;6.5;;;;;;;;;;;;;
2021/08/15 02:18:00;;;;;;;12.1;6.9;;;;;;;;;;;;;
2021/08/15 02:20:23;;;;;;;12.2;7.4;;;;;;;;;;;;;
2021/08/15 02:22:48;;;;;;;12.5;6.6;;;;;;;;;;;;;
2021/08/15 02:25:13;;;;;;;12.2;6.3;;;;;;;;;;;;;
2021/08/15 02:27:38;;;;;;;10.9;6.8;;;;;;;;;;;;;
2021/08/15 02:30:03;;;;;;;10.1;6.9;;;;;;;;;;;;;
2021/08/15 02:32:29;;;;;;;11;6.6;;;;;;;;;;;;;
2021/08/15 02:34:54;;;;;;;9.7;6.6;;;;;;;;;;;;;
2021/08/15 02:37:20;;;;;;;9.6;6.4;;;;;;;;;;;;;
2021/08/15 02:39:44;;;;;;;13.3;7;;;;;;;;;;;;;
2021/08/15 02:42:11;;;;;;;11;6.5;;;;;;;;;;;;;
2021/08/15 02:44:36;;;;;;;12.4;7.1;;;;;;;;;;;;;
2021/08/15 02:47:02;;;;;;;8.9;6.4;;;;;;;;;;;;;
2021/08/15 02:49:26;;;;;;;9.6;6.4;;;;;;;;;;;;;
2021/08/15 02:51:53;;;;;;;8;6.4;;;;;;;;;;;;;
2021/08/15 02:54:18;;;;;;;10.6;6.6;;;;;;;;;;;;;
2021/08/15 02:56:43;;;;;;;11;6.6;;;;;;;;;;;;;
2021/08/15 02:59:10;;;;;;;9.5;6.5;;;;;;;;;;;;;
2021/08/15 03:01:34;;;;;;;11.5;6.9;;;;;;;;;;;;;
2021/08/15 03:03:59;;;;;;;9.8;6.8;;;;;;;;;;;;;
2021/08/15 03:06:25;;;;;;;12;6.6;;;;;;;;;;;;;
2021/08/15 03:08:50;;;;;;;10.3;6.4;;;;;;;;;;;;;
2021/08/15 03:11:17;;;;;;;10.1;7;;;;;;;;;;;;;
2021/08/15 03:13:44;;;;;;;9.3;6.3;;;;;;;;;;;;;
2021/08/15 03:16:07;;;;;;;11.1;6.5;;;;;;;;;;;;;
2021/08/15 03:18:32;;;;;;;12.9;7.1;;;;;;;;;;;;;
2021/08/15 03:20:57;;;;;;;12.4;6.9;;;;;;;;;;;;;
2021/08/15 03:23:23;;;;;;;10.4;6.6;;;;;;;;;;;;;
2021/08/15 03:25:48;;;;;;;12.2;6.9;;;;;;;;;;;;;
2021/08/15 03:28:14;;;;;;;12.3;7.4;;;;;;;;;;;;;
2021/08/15 03:30:39;;;;;;;12.1;6.6;;;;;;;;;;;;;
2021/08/15 03:33:04;;;;;;;9.6;6.7;;;;;;;;;;;;;
2021/08/15 03:35:29;;;;;;;12.2;6.6;;;;;;;;;;;;;
2021/08/15 03:37:56;;;;;;;9.7;6.2;;;;;;;;;;;;;
2021/08/15 03:40:33;;;;;;;15.3;6.8;;;;;;;;;;;;;
2021/08/15 03:42:59;;;;;;;9.9;6.9;;;;;;;;;;;;;
2021/08/15 03:45:24;;;;;;;12.1;6.5;;;;;;;;;;;;;
2021/08/15 03:47:51;;;;;;;11.7;6.7;;;;;;;;;;;;;
2021/08/15 03:50:15;;;;;;;11.5;6.9;;;;;;;;;;;;;
2021/08/15 03:52:41;;;;;;;10.7;7.2;;;;;;;;;;;;;
2021/08/15 03:55:07;;;;;;;10.4;6.8;;;;;;;;;;;;;
2021/08/15 03:57:31;;;;;;;10.9;6.6;;;;;;;;;;;;;
2021/08/15 03:59:57;;;;;;;10.9;6.9;;;;;;;;;;;;;
2021/08/15 04:02:36;;;;;;;10.2;6.4;;;;;;;19.62;86.62598;939.733;;;;
2021/08/15 04:05:01;;;;;;;11.9;6.5;;;;;;;19.6;86.05176;939.7131;;;;
2021/08/15 04:07:26;;;;;;;11.6;6.7;;;;;;;19.61;85.70313;939.6638;;;;
2021/08/15 04:09:54;;;;;;;11.1;7.4;;;;;;;19.66;85.92383;939.6353;;;;
2021/08/15 04:12:19;;;;;;;13.2;7.3;;;;;;;19.64;86.04883;939.7012;;;;
2021/08/15 04:14:45;;;;;;;8.8;6.5;;;;;;;19.57;86.55859;939.6814;;;;
2021/08/15 04:17:11;;;;;;;11.6;7;;;;;;;19.6;86.12109;939.6428;;;;
2021/08/15 04:19:38;;;;;;;10.4;6.6;;;;;;;19.53;86.38672;939.699;;;;
2021/08/15 04:22:03;;;;;;;11.4;6.2;;;;;;;19.34;87.36328;939.7532;;;;
2021/08/15 04:24:31;;;;;;;11.5;7.2;;;;;;;19.32;87.21973;939.6826;;;;
2021/08/15 04:26:56;;;;;;;11.5;6.5;;;;;;;19.27;87.875;939.6892;;;;
2021/08/15 04:29:23;;;;;;;11.8;7;;;;;;;19.2;88.20801;939.6769;;;;
2021/08/15 04:31:48;;;;;;;8.9;6.5;;;;;;;19.16;88.13086;939.6792;;;;
2021/08/15 04:34:16;;;;;;;8.6;5.8;;;;;;;19.22;87.89941;939.6483;;;;
2021/08/15 04:36:41;;;;;;;8.8;6.4;;;;;;;19.29;87.48242;939.7042;;;;
2021/08/15 04:39:07;;;;;;;9.7;6;;;;;;;19.41;86.62207;939.674;;;;
2021/08/15 04:41:32;;;;;;;9.1;5.8;;;;;;;19.42;86.76172;939.7241;;;;
2021/08/15 04:43:58;;;;;;;9.2;6;;;;;;;19.45;86.32422;939.7083;;;;
2021/08/15 04:46:23;;;;;;;10.2;6.3;;;;;;;19.3;86.7627;939.7491;;;;
2021/08/15 04:48:49;;;;;;;10.3;6.6;;;;;;;19.23;87.39063;939.7288;;;;
2021/08/15 04:51:14;;;;;;;10.1;6.5;;;;;;;19.22;87.5498;939.6869;;;;
2021/08/15 04:53:40;;;;;;;13.1;7.3;;;;;;;19.38;86.83691;939.7628;;;;
2021/08/15 04:56:06;;;;;;;9.8;6.6;;;;;;;19.41;86.60742;939.7703;;;;
2021/08/15 04:58:32;;;;;;;11.4;6.6;;;;;;;19.4;86.66504;939.717;;;;
2021/08/15 05:00:57;;;;;;;9.7;6.5;;;;;;;19.37;86.64648;939.7453;;;;
2021/08/15 05:03:22;;;;;;;10.6;6.7;;;;;;;19.28;87.41113;939.6664;;;;
2021/08/15 05:05:48;;;;;;;9.2;6.5;;;;;;;19.43;86.92676;939.7151;;;;
2021/08/15 05:08:15;;;;;;;11;6.8;;;;;;;19.52;86.30371;939.7237;;;;
2021/08/15 05:10:40;;;;;;;8.5;6.5;;;;;;;19.51;86.10352;939.6714;;;;
2021/08/15 05:13:07;;;;;;;11.2;6.4;;;;;;;19.48;86.23828;939.6647;;;;
2021/08/15 05:15:39;;;;;;;9.7;6.5;;;;;;;19.54;86.19238;939.645;;;;
2021/08/15 05:18:04;;;;;;;11.4;6.2;;;;;;;19.57;86;939.6322;;;;
2021/08/15 05:20:29;;;;;;;10.8;6.3;;;;;;;19.67;85.50586;939.6255;;;;
2021/08/15 05:23:10;;;;;;;11.8;6.5;;;;;;;19.78;84.57031;939.6205;;;;
2021/08/15 05:25:40;;;;;;;11.7;6.2;;;;;;;19.78;84.47754;939.6195;;;;
2021/08/15 05:28:05;;;;;;;7.6;5.8;;;;;;;19.83;84.61621;939.6017;;;;
2021/08/15 05:30:35;;;;;;;10.7;6.4;;;;;;;19.95;83.83203;939.5698;;;;
2021/08/15 05:33:00;;;;;;;10.4;5.9;;;;;;;20.08;83.13379;939.4739;;;;
2021/08/15 05:35:28;;;;;;;9.8;5.9;;;;;;;20.57;81.97559;939.5072;;;;
2021/08/15 05:37:53;;;;;;;9.5;5.2;;;;;;;21.98;76.81055;939.4869;;;;
2021/08/15 05:40:21;;;;;;;7.3;4.6;;;;;;;23.51;69.06738;939.4758;;;;
2021/08/15 05:45:14;;;;;;;8.5;5.1;;;;;;;24.89;63.64258;939.442;;;;
2021/08/15 05:47:39;;;;;;;9.8;4.8;;;;;;;24.52;64.7334;939.4183;;;;
2021/08/15 05:50:04;;;;;;;7;4.6;;;;;;;25.11;63.1543;939.4407;;;;
2021/08/15 05:52:30;;;;;;;6.2;4.8;;;;;;;25.91;60.08691;939.3912;;;;
2021/08/15 05:54:56;;;;;;;6.9;4.1;;;;;;;26.16;59.10352;939.4468;;;;
2021/08/15 05:57:21;;;;;;;7.7;4.6;;;;;;;26.64;58.16016;939.4214;;;;
2021/08/15 05:59:49;;;;;;;7.1;4.6;;;;;;;27.05;55.68848;939.425;;;;
2021/08/15 06:02:15;;;;;;;6.7;4.4;;;;;;;27.23;55.10645;939.4033;;;;
2021/08/15 06:04:41;;;;;;;8.7;4.2;;;;;;;28.46;52.16602;939.3721;;;;
2021/08/15 06:07:06;;;;;;;6;4.4;;;;;;;29.15;49.89941;939.3451;;;;
2021/08/15 06:09:31;;;;;;;7.6;4;;;;;;;30.29;46.41992;939.3577;;;;
2021/08/15 06:12:02;;;;;;;8.8;4.1;;;;;;;28.95;48.13867;939.2985;;;;
2021/08/15 06:14:22;;;;;;;8.2;4.8;;;;;;;28.38;49.02832;939.2966;;;;
2021/08/15 06:16:51;;;;;;;7.8;4.5;;;;;;;26.97;53.85254;939.35;;;;
2021/08/15 06:19:19;;;;;;;5.5;3.8;;;;;;;29.33;49.27539;939.2681;;;;
2021/08/15 06:21:44;;;;;;;7.5;3.9;;;;;;;30.91;45.51465;939.2712;;;;
2021/08/15 06:24:12;;;;;;;7.9;4.4;;;;;;;31.71;43.11523;939.281;;;;
2021/08/15 06:26:38;;;;;;;6.2;3.9;;;;;;;32.15;42.77441;939.3066;;;;
2021/08/15 06:29:05;;;;;;;6.3;3.7;;;;;;;32.9;40.19141;939.2233;;;;
2021/08/15 06:31:30;;;;;;;7.7;4.5;;;;;;;33.28;39.64746;939.2495;;;;
2021/08/15 06:35:17;;;;;;;6;4;;;;;;;34.06;38.37988;939.2175;;;;
2021/08/15 06:37:42;;;;;;;7.7;4;;;;;;;34.23;37.63379;939.2274;;;;
2021/08/15 06:40:11;;;;;;;4.8;3.6;;;;;;;34.6;36.58105;939.1741;;;;
2021/08/15 06:42:36;;;;;;;5.2;3.5;;;;;;;34.15;37.0625;939.1241;;;;
2021/08/15 06:45:01;;;;;;;6;3.7;;;;;;;35.45;35.01855;939.122;;;;
2021/08/15 06:47:26;;;;;;;4.9;4;;;;;;;34.46;35.43652;939.1309;;;;
2021/08/15 06:49:51;;;;;;;4.8;3.5;;;;;;;32.66;38.84961;939.1;;;;
2021/08/15 06:52:17;;;;;;;6;3.8;;;;;;;34.13;38.43262;939.1124;;;;
2021/08/15 06:54:42;;;;;;;5.3;3.6;;;;;;;34.26;35.95117;939.0935;;;;
2021/08/15 06:57:07;;;;;;;3.7;3.3;;;;;;;35.8;33.74023;939.1257;;;;
2021/08/15 06:59:32;;;;;;;6.9;4.2;;;;;;;34.81;34.74023;939.0416;;;;
2021/08/15 07:01:58;;;;;;;6.2;3.7;;;;;;;34.61;36.08691;939.0336;;;;
2021/08/15 07:04:23;;;;;;;4;3.2;;;;;;;35.54;34.37402;939.0472;;;;
2021/08/15 07:06:50;;;;;;;4.1;3.4;;;;;;;34.4;35.14258;938.9916;;;;
2021/08/15 07:09:16;;;;;;;5.5;3.5;;;;;;;34.75;36.21875;938.9601;;;;
2021/08/15 07:11:41;;;;;;;6.7;4;;;;;;;36.21;34.31445;939.0318;;;;
2021/08/15 07:14:06;;;;;;;5.8;3.6;;;;;;;36.8;33.40234;939.0131;;;;
2021/08/15 07:16:34;;;;;;;7.9;3.6;;;;;;;37.6;31.30078;938.9842;;;;
2021/08/15 07:19:01;;;;;;;5;3.8;;;;;;;38.21;30.69824;939.0039;;;;
2021/08/15 07:21:26;;;;;;;5.5;3.9;;;;;;;36.41;32.62402;939.0416;;;;
2021/08/15 07:23:52;;;;;;;5.6;3.3;;;;;;;36.9;33.03418;938.9835;;;;
2021/08/15 07:26:17;;;;;;;4.9;3.4;;;;;;;36.98;32.39648;939.009;;;;
2021/08/15 07:28:42;;;;;;;4.7;3.5;;;;;;;35.36;34.5166;938.954;;;;
2021/08/15 07:31:12;;;;;;;4.5;3.5;;;;;;;35.58;32.99902;938.9961;;;;
2021/08/15 07:33:42;;;;;;;6.3;3.6;;;;;;;35.48;33.83691;938.9475;;;;
2021/08/15 07:36:07;;;;;;;5.4;3.3;;;;;;;34.84;36.09277;938.9253;;;;
2021/08/15 07:38:33;;;;;;;6.6;3.7;;;;;;;36.98;33.24512;938.9724;;;;
2021/08/15 07:40:59;;;;;;;4.8;3.6;;;;;;;37.1;31.75098;938.9669;;;;
2021/08/15 07:43:24;;;;;;;6.2;4;;;;;;;37.09;32.59961;938.9369;;;;
2021/08/15 07:45:49;;;;;;;4.7;3.3;;;;;;;36.36;32.95898;938.9311;;;;
2021/08/15 07:48:17;;;;;;;5.4;3.8;;;;;;;35.82;34.22461;938.9399;;;;
2021/08/15 07:50:42;;;;;;;4.8;3.4;;;;;;;37.55;32.57227;938.9431;;;;
2021/08/15 07:53:07;;;;;;;6.7;4;;;;;;;38.27;31.00586;938.9172;;;;
2021/08/15 07:55:44;;;;;;;5.7;3.7;;;;;;;38.22;32.63086;938.8953;;;;
2021/08/15 07:58:09;;;;;;;5.6;3.5;;;;;;;37.21;32.92285;938.8982;;;;
2021/08/15 08:00:34;;;;;;;4;3.4;;;;;;;37.83;32.28711;938.8895;;;;
2021/08/15 08:02:59;;;;;;;4.8;3.3;;;;;;;37.27;31.80078;938.8781;;;;
2021/08/15 08:05:24;;;;;;;4.3;3.5;;;;;;;38.94;29.93164;938.8894;;;;
2021/08/15 08:07:52;;;;;;;6.9;4;;;;;;;39.03;29.14746;938.8546;;;;
2021/08/15 08:10:31;;;;;;;7.6;3.7;;;;;;;39.24;29.18457;938.8094;;;;
2021/08/15 08:12:56;;;;;;;5.6;3.7;;;;;;;38.07;30.22754;938.8203;;;;
2021/08/15 08:15:32;;;;;;;6.8;4;;;;;;;37.59;30.79004;938.7784;;;;
2021/08/15 08:17:58;;;;;;;4.8;3.7;;;;;;;39.22;28.36719;938.7299;;;;
2021/08/15 08:20:23;;;;;;;5.8;3.7;;;;;;;39.92;29.10547;938.7708;;;;
2021/08/15 08:22:51;;;;;;;6.6;3.7;;;;;;;40.23;29.38184;938.7406;;;;
2021/08/15 08:25:16;;;;;;;5.5;3.6;;;;;;;38.11;30.81348;938.7009;;;;
2021/08/15 08:27:44;;;;;;;6.3;3.9;;;;;;;37.58;31.43262;938.6425;;;;
2021/08/15 08:30:09;;;;;;;5.1;3.3;;;;;;;37.8;32.40723;938.6104;;;;
2021/08/15 08:32:34;;;;;;;5.7;3.6;;;;;;;38.79;29.19238;938.5837;;;;
2021/08/15 08:35:01;;;;;;;5.1;3.5;;;;;;;39.21;29.07227;938.5508;;;;
2021/08/15 08:37:26;;;;;;;6.3;3.7;;;;;;;39.86;28.61426;938.5304;;;;
2021/08/15 08:40:07;;;;;;;4.5;3.3;;;;;;;40.32;27.9834;938.5675;;;;
2021/08/15 08:42:33;;;;;;;4.4;3.3;;;;;;;38.62;30.08203;938.4864;;;;
2021/08/15 08:45:03;;;;;;;3.8;3.1;;;;;;;40.99;26.60645;938.5323;;;;
2021/08/15 08:47:26;;;;;;;3.8;3.2;;;;;;;38.28;31.3584;938.4553;;;;
2021/08/15 08:49:51;;;;;;;4.6;3.3;;;;;;;37.5;32.3252;938.3429;;;;
2021/08/15 08:52:17;;;;;;;5.8;3.7;;;;;;;37.72;31.67285;938.3808;;;;
2021/08/15 08:54:44;;;;;;;7.4;3.9;;;;;;;38.52;32.18945;938.3739;;;;
2021/08/15 08:57:09;;;;;;;5.4;3.5;;;;;;;38.97;31.96484;938.3376;;;;
2021/08/15 08:59:34;;;;;;;5.5;3.5;;;;;;;38.79;31.27246;938.2906;;;;
2021/08/15 09:02:00;;;;;;;3.6;3.2;;;;;;;38.4;32.01172;938.2744;;;;
2021/08/15 09:04:26;;;;;;;4.3;3.4;;;;;;;39.84;29.06445;938.2659;;;;
2021/08/15 09:06:51;;;;;;;6.7;3.5;;;;;;;37.55;33.41992;938.2195;;;;
2021/08/15 09:09:20;;;;;;;5.6;3.6;;;;;;;38.15;32.89258;938.1933;;;;
2021/08/15 09:11:45;;;;;;;6.9;3.8;;;;;;;36.88;34.81348;938.1418;;;;
2021/08/15 09:14:10;;;;;;;4.9;3.4;;;;;;;38.02;31.75488;938.1346;;;;
2021/08/15 09:16:40;;;;;;;4.8;3.7;;;;;;;37.76;32.46484;938.0728;;;;
2021/08/15 09:19:05;;;;;;;5.2;3.6;;;;;;;36.4;36.14453;938.0974;;;;
2021/08/15 09:21:31;;;;;;;5.4;3.4;;;;;;;36.25;35.3584;938.0812;;;;
2021/08/15 09:23:56;;;;;;;3.9;3.4;;;;;;;38.2;31.24414;937.9683;;;;
2021/08/15 09:26:21;;;;;;;5.5;3.5;;;;;;;37.17;34.98047;938.0137;;;;
2021/08/15 09:28:50;;;;;;;5.4;3.7;;;;;;;36.04;37.10742;937.9774;;;;
2021/08/15 09:31:15;;;;;;;5.1;4;;;;;;;35.06;38.46289;937.9821;;;;
2021/08/15 09:33:40;;;;;;;5.9;3.6;;;;;;;35.09;38.83984;937.9419;;;;
2021/08/15 09:36:05;;;;;;;6.8;4;;;;;;;35.6;36.7207;937.912;;;;
2021/08/15 09:38:32;;;;;;;6.5;3.9;;;;;;;35.08;39.42969;937.957;;;;
2021/08/15 09:40:57;;;;;;;7.5;4;;;;;;;35.22;37.61914;937.9164;;;;
2021/08/15 09:43:23;;;;;;;5.4;3.5;;;;;;;34.26;39.98535;937.8345;;;;
2021/08/15 09:46:02;;;;;;;5.1;3.6;;;;;;;34.78;40.0918;937.8636;;;;
2021/08/15 09:48:32;;;;;;;5.2;3.6;;;;;;;33.37;44.34277;937.7919;;;;
2021/08/15 09:50:55;;;;;;;7;4.7;;;;;;;32.98;43.16406;937.7338;;;;
2021/08/15 09:53:20;;;;;;;5.3;3.4;;;;;;;32.75;42.14648;937.6997;;;;
2021/08/15 09:55:45;;;;;;;5.7;3.8;;;;;;;33.64;40.09961;937.6288;;;;
2021/08/15 09:58:10;;;;;;;4.3;3.6;;;;;;;33.8;43.56738;937.6942;;;;
2021/08/15 10:00:35;;;;;;;6.9;4.2;;;;;;;33.57;43.24414;937.6189;;;;
2021/08/15 10:03:03;;;;;;;7.9;3.8;;;;;;;33.92;44.25293;937.5919;;;;
2021/08/15 10:05:26;;;;;;;6.1;3.9;;;;;;;34.16;41.26563;937.5754;;;;
2021/08/15 10:07:51;;;;;;;4.4;3.6;;;;;;;33.23;43.63281;937.5591;;;;
2021/08/15 10:10:18;;;;;;;7.2;4.7;;;;;;;33.45;44.62695;937.5093;;;;
2021/08/15 10:12:42;;;;;;;4.7;3.3;;;;;;;33.26;43.87598;937.4267;;;;
2021/08/15 10:15:13;;;;;;;5.5;3.9;;;;;;;33.96;41.4043;937.4196;;;;
2021/08/15 10:17:38;;;;;;;6;4;;;;;;;33.79;42.85645;937.4191;;;;
2021/08/15 10:20:03;;;;;;;4.9;4;;;;;;;33.39;44.81445;937.3414;;;;
2021/08/15 10:22:30;;;;;;;8.2;3.8;;;;;;;33.7;45.74707;937.3209;;;;
2021/08/15 10:24:55;;;;;;;6.5;3.6;;;;;;;33.83;44.12402;937.2994;;;;
2021/08/15 10:27:20;;;;;;;6.7;4.1;;;;;;;33.38;45.04199;937.2679;;;;
2021/08/15 10:29:45;;;;;;;7.9;4.1;;;;;;;33.68;45.0957;937.2125;;;;
2021/08/15 10:32:10;;;;;;;7.9;4.1;;;;;;;33.57;44.55566;937.1855;;;;
2021/08/15 10:34:35;;;;;;;4.8;3.6;;;;;;;33.87;43.17676;937.2111;;;;
2021/08/15 10:37:02;;;;;;;6.5;4.3;;;;;;;33.96;45.07422;937.1654;;;;
2021/08/15 10:39:32;;;;;;;7.8;3.7;;;;;;;35.1;42.84668;937.1367;;;;
2021/08/15 10:41:57;;;;;;;7;4.1;;;;;;;36.18;41.31641;937.1509;;;;
2021/08/15 10:44:22;;;;;;;7.6;4.6;;;;;;;36.17;40.68555;937.1154;;;;
2021/08/15 10:46:47;;;;;;;5.5;4;;;;;;;34.8;44.80859;937.0889;;;;
2021/08/15 10:49:12;;;;;;;6.9;4.2;;;;;;;35.48;41.65137;937.0323;;;;
2021/08/15 10:51:37;;;;;;;5.6;4;;;;;;;34.93;45.24316;937.0614;;;;
2021/08/15 10:54:02;;;;;;;8.2;4;;;;;;;35.13;44.64648;937.0148;;;;
2021/08/15 10:56:27;;;;;;;6.8;4.4;;;;;;;36;40.93652;936.9593;;;;
2021/08/15 10:58:53;;;;;;;5.5;4.3;;;;;;;36.32;40.35938;936.9402;;;;
2021/08/15 11:01:19;;;;;;;6.3;4;;;;;;;35.85;41.78125;936.9137;;;;
2021/08/15 11:03:44;;;;;;;6;4.2;;;;;;;36.4;41.06934;936.8441;;;;
2021/08/15 11:06:10;;;;;;;7.2;4.4;;;;;;;37.25;38.42969;936.7697;;;;
2021/08/15 11:08:35;;;;;;;5.1;3.5;;;;;;;37.11;39.89551;936.7639;;;;
2021/08/15 11:11:03;;;;;;;7.6;4.4;;;;;;;36.75;39.6709;936.7365;;;;
2021/08/15 11:13:31;;;;;;;5.5;3.8;;;;;;;35.82;42.50293;936.738;;;;
2021/08/15 11:15:58;;;;;;;8.4;4;;;;;;;35.56;43.79492;936.7183;;;;
2021/08/15 11:18:24;;;;;;;5.1;3.7;;;;;;;35.41;44.31152;936.6707;;;;
2021/08/15 11:21:20;;;;;;;5.4;3.8;;;;;;;36.75;39.52539;936.6884;;;;
2021/08/15 11:23:47;;;;;;;5.7;4;;;;;;;37.65;37.0791;936.6404;;;;
2021/08/15 11:26:13;;;;;;;7.2;3.9;;;;;;;37.84;36.82813;936.6292;;;;
2021/08/15 11:28:37;;;;;;;6;3.5;;;;;;;37.36;37.72363;936.5502;;;;
2021/08/15 11:31:04;;;;;;;6.1;4.3;;;;;;;36.63;40.16895;936.4913;;;;
2021/08/15 11:33:29;;;;;;;7.2;4.2;;;;;;;36.78;38.74121;936.4984;;;;
2021/08/15 11:35:55;;;;;;;7.9;4.1;;;;;;;37.69;38.0293;936.4375;;;;
2021/08/15 11:38:20;;;;;;;8.7;4;;;;;;;38.1;37.30957;936.4554;;;;
2021/08/15 11:40:46;;;;;;;5.7;4.1;;;;;;;38;36.02734;936.4146;;;;
2021/08/15 11:43:11;;;;;;;5.8;3.7;;;;;;;37.48;37.22363;936.3987;;;;
2021/08/15 11:45:39;;;;;;;5.2;3.9;;;;;;;37.12;37.4375;936.3505;;;;
2021/08/15 11:48:04;;;;;;;8.4;4.1;;;;;;;38.24;36.03418;936.4135;;;;
2021/08/15 11:51:06;;;;;;;8.2;4.4;;;;;;;38.66;35.14258;936.4093;;;;
2021/08/15 11:53:31;;;;;;;6.2;4.1;;;;;;;38.88;34.34375;936.2856;;;;
2021/08/15 11:55:56;;;;;;;5.4;3.8;;;;;;;39.03;33.83203;936.2784;;;;
2021/08/15 11:58:22;;;;;;;5.4;3.7;;;;;;;38.97;33.62109;936.2838;;;;
2021/08/15 12:00:47;;;;;;;4.6;3.6;;;;;;;38.86;35.03613;936.1667;;;;
2021/08/15 12:03:12;;;;;;;7.5;4;;;;;;;38.63;36.01563;936.1211;;;;
2021/08/15 12:05:37;;;;;;;5.9;3.2;;;;;;;38.99;35.98242;936.0078;;;;
2021/08/15 12:08:02;;;;;;;5.4;4.3;;;;;;;39.18;34.23242;935.9867;;;;
2021/08/15 12:10:27;;;;;;;9;3.7;;;;;;;39.64;33.35352;935.9264;;;;
2021/08/15 12:12:52;;;;;;;5.8;3.8;;;;;;;39.32;33.47559;935.9517;;;;
2021/08/15 12:15:22;;;;;;;5.1;3.8;;;;;;;38.97;35.55566;935.9073;;;;
2021/08/15 12:17:50;;;;;;;6.5;3.9;;;;;;;38.91;34.85742;935.8783;;;;
2021/08/15 12:20:15;;;;;;;5.7;4.2;;;;;;;39.1;35.26074;935.8937;;;;
2021/08/15 12:22:42;;;;;;;6.4;3.9;;;;;;;38.51;35.19141;935.8409;;;;
2021/08/15 12:25:07;;;;;;;6.8;4.3;;;;;;;38.24;35.23145;935.8;;;;
2021/08/15 12:27:33;;;;;;;4.8;3.5;;;;;;;38.4;35.18359;935.7358;;;;
2021/08/15 12:29:58;;;;;;;6.9;3.6;;;;;;;37.41;36.76953;935.7536;;;;
2021/08/15 12:32:23;;;;;;;5.2;3.7;;;;;;;36.45;39.8877;935.6914;;;;
2021/08/15 12:34:48;;;;;;;7.1;4.2;;;;;;;35.69;40.76367;935.6304;;;;
2021/08/15 12:37:15;;;;;;;9.2;4.4;;;;;;;35.63;40.95215;935.5812;;;;
2021/08/15 12:39:44;;;;;;;6.3;4.2;;;;;;;35.52;40.56738;935.5905;;;;
2021/08/15 12:42:10;;;;;;;7.8;4.4;;;;;;;35.15;40.88477;935.5597;;;;
2021/08/15 12:44:35;;;;;;;8.2;4.2;;;;;;;34.6;42.91992;935.576;;;;
2021/08/15 12:47:00;;;;;;;6.2;4.4;;;;;;;34.53;42.86523;935.4672;;;;
2021/08/15 12:49:26;;;;;;;6.1;3.8;;;;;;;34.86;42.46289;935.4528;;;;
2021/08/15 12:51:51;;;;;;;7.3;4.1;;;;;;;34.8;42.87988;935.509;;;;
2021/08/15 12:54:16;;;;;;;5.1;3.8;;;;;;;34.7;43.0752;935.5909;;;;
2021/08/15 12:56:41;;;;;;;7.2;3.9;;;;;;;34.64;42.67188;935.5945;;;;
2021/08/15 12:59:08;;;;;;;8;4.3;;;;;;;34.47;46.30664;935.5784;;;;
2021/08/15 13:01:33;;;;;;;6.9;4.1;;;;;;;34.61;44.15039;935.5377;;;;
2021/08/15 13:04:01;;;;;;;5;3.7;;;;;;;34.67;43.51758;935.5314;;;;
2021/08/15 13:06:26;;;;;;;6;4.2;;;;;;;34.52;43.81641;935.532;;;;
2021/08/15 13:08:52;;;;;;;6.9;3.8;;;;;;;34.23;43.96973;935.5605;;;;
2021/08/15 13:11:17;;;;;;;6.4;4.5;;;;;;;33.44;46.27344;935.5255;;;;
2021/08/15 13:13:42;;;;;;;8.5;4.5;;;;;;;32.25;49.28125;935.4485;;;;
2021/08/15 13:16:15;;;;;;;8.5;4.2;;;;;;;32.15;48.49219;935.3702;;;;
2021/08/15 13:18:42;;;;;;;7.2;4.5;;;;;;;31.7;49.86914;935.305;;;;
2021/08/15 13:21:07;;;;;;;7;4.5;;;;;;;31.39;51.28418;935.2819;;;;
2021/08/15 13:23:33;;;;;;;6.3;4.3;;;;;;;31.63;50.52051;935.3465;;;;
2021/08/15 13:25:59;;;;;;;8.1;4.5;;;;;;;31.6;50.55273;935.3329;;;;
2021/08/15 13:28:25;;;;;;;7.8;5.1;;;;;;;31.57;51.87891;935.3218;;;;
2021/08/15 13:30:50;;;;;;;7.9;4.5;;;;;;;31.65;51.00098;935.3184;;;;
2021/08/15 13:33:16;;;;;;;7.1;4.6;;;;;;;31.35;51.60156;935.2564;;;;
2021/08/15 13:35:41;;;;;;;8.3;5.2;;;;;;;31.48;53.37598;935.3045;;;;
2021/08/15 13:38:07;;;;;;;9.7;5.3;;;;;;;31.33;53.84961;935.3035;;;;
2021/08/15 13:40:33;;;;;;;6.9;4.7;;;;;;;31.53;52.44824;935.3286;;;;
2021/08/15 13:43:00;;;;;;;7.6;4.8;;;;;;;31.3;53.23535;935.2981;;;;
2021/08/15 13:45:23;;;;;;;9.1;5.1;;;;;;;31.33;52.97656;935.2827;;;;
2021/08/15 13:47:49;;;;;;;7.1;4.8;;;;;;;31.58;52.91016;935.2628;;;;
2021/08/15 13:50:15;;;;;;;8.3;4.8;;;;;;;31.91;53.51074;935.228;;;;
2021/08/15 13:52:41;;;;;;;8.9;4.7;;;;;;;32.11;50.48926;935.1273;;;;
2021/08/15 13:55:06;;;;;;;7.6;4.8;;;;;;;32.16;50.06445;935.0212;;;;
2021/08/15 13:57:39;;;;;;;8.3;5;;;;;;;32.43;49.65039;934.9094;;;;
2021/08/15 14:00:02;;;;;;;8.1;5;;;;;;;32.45;49.86816;934.8244;;;;
2021/08/15 14:02:31;;;;;;;6.8;4.3;;;;;;;32.4;48.96387;934.8025;;;;
2021/08/15 14:04:56;;;;;;;7.8;5.1;;;;;;;32.17;49.4541;934.7753;;;;
2021/08/15 14:07:24;;;;;;;6.8;4.5;;;;;;;31.94;49.98047;934.762;;;;
2021/08/15 14:09:48;;;;;;;7.1;4.8;;;;;;;31.76;51.44531;934.845;;;;
2021/08/15 14:12:15;;;;;;;7.8;4.5;;;;;;;31.29;52.54102;935.08;;;;
2021/08/15 14:14:41;;;;;;;7.4;4.9;;;;;;;30.55;54.84473;935.2611;;;;
2021/08/15 14:17:06;;;;;;;8;5;;;;;;;30.33;60.6084;935.3989;;;;
2021/08/15 14:19:31;;;;;;;7.1;5.1;;;;;;;30.1;62.51172;935.1802;;;;
2021/08/15 14:21:57;;;;;;;9.5;5.6;;;;;;;30.18;60.2666;934.966;;;;
2021/08/15 14:24:22;;;;;;;10.2;5.7;;;;;;;29.86;59.13867;935.0574;;;;
2021/08/15 14:26:47;;;;;;;12.8;5.6;;;;;;;29.09;60.78809;935.068;;;;
2021/08/15 14:29:13;;;;;;;9.5;4.9;;;;;;;28.72;61.70117;935.3502;;;;
2021/08/15 14:31:38;;;;;;;9.9;4.7;;;;;;;28.39;61.32324;935.475;;;;
2021/08/15 14:34:06;;;;;;;8.1;4.7;;;;;;;27.99;62.97754;935.6496;;;;
2021/08/15 14:36:31;;;;;;;6.9;4.2;;;;;;;27.15;64.77051;935.8884;;;;
2021/08/15 14:38:58;;;;;;;6.7;4.1;;;;;;;26.33;64.91406;936.1489;;;;
2021/08/15 14:41:23;;;;;;;5.3;3.7;;;;;;;25.99;65.91699;936.2014;;;;
2021/08/15 14:43:50;;;;;;;6.6;3.6;;;;;;;25.87;64.6582;936.4106;;;;
2021/08/15 14:46:16;;;;;;;6.2;3.4;;;;;;;26.23;60.36621;936.4761;;;;
2021/08/15 14:48:43;;;;;;;8.1;3.6;;;;;;;26.09;60.4541;936.6019;;;;
2021/08/15 14:51:08;;;;;;;5.6;3.6;;;;;;;26.14;60.4375;936.622;;;;
2021/08/15 14:53:34;;;;;;;7.9;3.7;;;;;;;26.03;60.40039;936.8472;;;;
2021/08/15 14:55:59;;;;;;;6.4;3.4;;;;;;;25.47;61.77637;936.6508;;;;
2021/08/15 14:58:25;;;;;;;4.9;3.6;;;;;;;25.4;64.05762;936.7659;;;;
2021/08/15 15:00:50;;;;;;;5.5;3.6;;;;;;;25.68;63.94336;936.795;;;;
2021/08/15 15:03:16;;;;;;;5.8;3.4;;;;;;;25.61;63.02539;936.7899;;;;
2021/08/15 15:05:42;;;;;;;6.3;3.8;;;;;;;24.97;65.66016;936.6907;;;;
2021/08/15 15:08:10;;;;;;;7;3.5;;;;;;;25.29;64.12598;936.5388;;;;
2021/08/15 15:10:35;;;;;;;5.9;3.6;;;;;;;24.83;66.74805;936.4281;;;;
2021/08/15 15:13:02;;;;;;;5.2;3.1;;;;;;;24.36;66.91406;936.3656;;;;
2021/08/15 15:15:30;;;;;;;21.5;9.6;;;;;;;23.7;70.03809;936.4044;;;;
2021/08/15 15:17:55;;;;;;;26.4;13.3;;;;;;;23.59;72.06641;936.4319;;;;
2021/08/15 15:20:23;;;;;;;4.7;2.9;;;;;;;24.06;69.17676;936.55;;;;
2021/08/15 15:22:49;;;;;;;4.7;3.2;;;;;;;24.43;67.39551;936.4986;;;;
2021/08/15 15:25:16;;;;;;;5;3;;;;;;;24.59;66.38281;936.5048;;;;
2021/08/15 15:27:41;;;;;;;4.1;3.3;;;;;;;24.91;66.27637;936.4812;;;;
2021/08/15 15:30:14;;;;;;;4.7;3;;;;;;;25.39;65.2959;936.4794;;;;
2021/08/15 15:32:41;;;;;;;5;2.7;;;;;;;25.36;63.27246;936.2697;;;;
2021/08/15 15:35:06;;;;;;;4.5;2.8;;;;;;;25.33;64.50879;936.2841;;;;